Time;durP1;ratioP1;P1;durP2;ratioP2;P2;SDS_P1;SDS_P2;PMS_P1;PMS_P2;Temp;Humidity;BMP_temperature;BMP_pressure;BME280_temperature;BME280_humidity;BME280_pressure;Samples;Min_cycle;Max_cycle;Signal;HPM_P1;HPM_P2
2021/11/17 02:26:28;;;;;;;13.55;10.80;;;;;;;;;;5026414;28;20593;-49
2021/11/17 02:28:54;;;;;;;15.40;11.27;;;;;;;;;;5026006;28;20180;-50
2021/11/17 02:31:27;;;;;;;14.18;10.43;;;;;;;;;;5028008;28;20190;-50
2021/11/17 02:33:53;;;;;;;14.15;10.80;;;;;;;;;;5025021;28;20302;-51
2021/11/17 02:36:34;;;;;;;15.65;11.18;;;;;;;;;;5031471;28;20334;-49
2021/11/17 02:39:00;;;;;;;15.90;10.85;;;;;;;;;;5024797;28;20190;-50
2021/11/17 02:41:34;;;;;;;13.73;10.50;;;;;;;;;;5025487;28;20192;-49
2021/11/17 02:44:03;;;;;;;15.63;10.93;;;;;;;;;;5025406;28;20283;-50
2021/11/17 02:46:56;;;;;;;15.02;10.57;;;;;;;;;;5025547;28;20223;-48
2021/11/17 02:49:25;;;;;;;13.65;10.57;;;;;;;;;;5026052;28;20303;-50
2021/11/17 02:51:51;;;;;;;11.88;9.43;;;;;;;;;;5028421;28;20179;-51
2021/11/17 02:54:26;;;;;;;13.15;10.25;;;;;;;;;;5028297;28;20176;-49
2021/11/17 02:56:52;;;;;;;14.05;10.05;;;;;;;;;;5026121;28;20188;-51
2021/11/17 02:59:57;;;;;;;13.23;10.05;;;;;;;;;;5032022;28;20210;-49
2021/11/17 03:02:28;;;;;;;11.77;9.48;;;;;;;;;;4989990;28;20207;-50
2021/11/17 03:05:13;;;;;;;13.70;10.68;;;;;;;;;;4989702;28;20212;-49
2021/11/17 03:07:54;;;;;;;13.48;10.40;;;;;;;;;;5016119;28;20246;-50
2021/11/17 03:10:31;;;;;;;13.88;10.48;;;;;;;;;;5031159;28;20184;-49
2021/11/17 03:13:03;;;;;;;11.93;10.20;;;;;;;;;;5028042;28;20296;-50
2021/11/17 03:15:53;;;;;;;12.27;9.77;;;;;;;;;;5031935;28;20578;-49
2021/11/17 03:18:40;;;;;;;12.38;9.73;;;;;;;;;;5033420;28;20565;-49
2021/11/17 03:21:15;;;;;;;12.45;9.75;;;;;;;;;;5032503;28;20176;-49
2021/11/17 03:23:48;;;;;;;13.73;9.68;;;;;;;;;;5024876;28;20179;-49
2021/11/17 03:26:36;;;;;;;11.07;9.07;;;;;;;;;;5032711;28;20298;-49
2021/11/17 03:29:20;;;;;;;12.35;9.52;;;;;;;;;;5033173;28;20458;-49
2021/11/17 03:31:46;;;;;;;11.85;9.55;;;;;;;;;;5028094;28;20179;-50
2021/11/17 03:34:39;;;;;;;11.60;9.90;;;;;;;;;;5030310;28;20441;-49
2021/11/17 03:37:14;;;;;;;12.80;9.75;;;;;;;;;;5032290;28;20199;-49
2021/11/17 03:39:55;;;;;;;11.68;9.50;;;;;;;;;;5028682;28;20504;-49
2021/11/17 03:42:24;;;;;;;11.80;9.45;;;;;;;;;;5025010;28;20183;-49
2021/11/17 03:44:56;;;;;;;11.88;9.15;;;;;;;;;;5024769;28;20207;-51
2021/11/17 03:47:41;;;;;;;11.30;9.10;;;;;;;;;;5025091;28;20183;-50
2021/11/17 03:50:16;;;;;;;10.65;8.93;;;;;;;;;;5031250;28;20184;-51
2021/11/17 03:52:55;;;;;;;12.85;9.00;;;;;;;;;;5024295;28;20995;-48
2021/11/17 03:55:27;;;;;;;11.52;9.10;;;;;;;;;;5024761;28;20537;-50
2021/11/17 03:58:18;;;;;;;10.45;8.68;;;;;;;;;;5024323;28;20206;-50
2021/11/17 04:00:51;;;;;;;10.80;8.90;;;;;;;;;;5024759;28;20204;-49
2021/11/17 04:03:36;;;;;;;10.38;8.48;;;;;;;;;;5023948;28;20541;-49
2021/11/17 04:06:21;;;;;;;10.90;8.48;;;;;;;;;;5028053;28;20242;-50
2021/11/17 04:08:53;;;;;;;10.43;9.07;;;;;;;;;;5027627;28;20194;-49
2021/11/17 04:11:31;;;;;;;9.98;8.07;;;;;;;;;;5031567;28;20215;-49
2021/11/17 04:13:57;;;;;;;10.73;8.60;;;;;;;;;;5031614;28;20188;-51
2021/11/17 04:16:50;;;;;;;10.95;8.70;;;;;;;;;;5031954;28;20206;-50
2021/11/17 04:19:29;;;;;;;9.73;8.20;;;;;;;;;;5031325;28;20200;-51
2021/11/17 04:22:04;;;;;;;13.07;9.15;;;;;;;;;;5032881;28;20230;-50
2021/11/17 04:24:30;;;;;;;10.20;7.65;;;;;;;;;;5031554;28;20218;-49
2021/11/17 04:27:15;;;;;;;8.98;7.70;;;;;;;;;;5035155;28;20570;-50
2021/11/17 04:29:56;;;;;;;9.18;7.82;;;;;;;;;;5031613;28;20175;-50
2021/11/17 04:32:41;;;;;;;9.45;7.78;;;;;;;;;;5034731;28;20183;-50
2021/11/17 04:35:26;;;;;;;9.27;7.63;;;;;;;;;;5034876;28;20211;-50
2021/11/17 04:37:58;;;;;;;9.40;7.78;;;;;;;;;;5037063;28;20320;-50
2021/11/17 04:40:41;;;;;;;11.15;8.65;;;;;;;;;;5035609;28;20180;-50
2021/11/17 04:43:16;;;;;;;9.57;7.80;;;;;;;;;;5035542;28;20230;-49
2021/11/17 04:46:00;;;;;;;8.63;7.35;;;;;;;;;;5035349;28;20214;-50
2021/11/17 04:48:36;;;;;;;10.52;8.02;;;;;;;;;;5035595;28;20184;-51
2021/11/17 04:51:14;;;;;;;9.73;7.50;;;;;;;;;;5035700;28;20187;-49
2021/11/17 04:53:59;;;;;;;10.38;7.60;;;;;;;;;;5030417;28;20195;-49
2021/11/17 04:56:54;;;;;;;9.98;7.95;;;;;;;;;;5045305;28;20225;-49
2021/11/17 04:59:27;;;;;;;9.82;7.90;;;;;;;;;;5011251;28;20196;-49
2021/11/17 05:01:53;;;;;;;9.60;7.78;;;;;;;;;;5031559;28;20888;-49
2021/11/17 05:04:18;;;;;;;9.88;7.70;;;;;;;;;;5034201;28;20199;-51
2021/11/17 05:07:17;;;;;;;9.95;7.55;;;;;;;;;;5034610;28;20230;-49
2021/11/17 05:09:49;;;;;;;9.35;7.43;;;;;;;;;;5029164;28;20200;-49
2021/11/17 05:12:34;;;;;;;8.32;7.20;;;;;;;;;;5033321;28;20179;-50
2021/11/17 05:15:32;;;;;;;8.45;7.18;;;;;;;;;;5034273;28;20188;-51
2021/11/17 05:18:01;;;;;;;8.32;6.93;;;;;;;;;;5023982;28;20196;-50
2021/11/17 05:20:27;;;;;;;8.48;7.10;;;;;;;;;;5034458;28;20212;-50
2021/11/17 05:23:03;;;;;;;8.32;7.32;;;;;;;;;;5036590;28;20227;-49
2021/11/17 05:25:32;;;;;;;8.45;7.13;;;;;;;;;;5033817;28;20211;-51
2021/11/17 05:28:04;;;;;;;10.15;7.72;;;;;;;;;;5035789;28;20479;-51
2021/11/17 05:30:33;;;;;;;8.18;6.60;;;;;;;;;;5035245;28;20176;-50
2021/11/17 05:33:28;;;;;;;8.40;6.88;;;;;;;;;;5034366;28;20259;-50
2021/11/17 05:36:05;;;;;;;7.63;6.63;;;;;;;;;;5024530;28;20200;-49
2021/11/17 05:38:37;;;;;;;8.93;6.60;;;;;;;;;;5033863;28;20305;-49
2021/11/17 05:41:18;;;;;;;8.02;6.30;;;;;;;;;;5030882;28;20180;-50
2021/11/17 05:43:50;;;;;;;7.65;6.25;;;;;;;;;;5027841;28;20187;-50
2021/11/17 05:46:16;;;;;;;8.50;6.80;;;;;;;;;;5034496;28;20203;-49
2021/11/17 05:48:45;;;;;;;8.93;7.00;;;;;;;;;;5033288;28;20226;-51
2021/11/17 05:51:11;;;;;;;7.97;6.32;;;;;;;;;;5033777;28;20180;-50
2021/11/17 05:53:45;;;;;;;7.65;6.50;;;;;;;;;;5034886;28;20180;-49
2021/11/17 05:56:11;;;;;;;9.50;6.72;;;;;;;;;;5034474;28;20188;-49
2021/11/17 05:58:39;;;;;;;8.18;6.40;;;;;;;;;;5034691;28;20192;-49
2021/11/17 06:01:20;;;;;;;8.32;6.95;;;;;;;;;;5034836;28;20290;-49
2021/11/17 06:03:56;;;;;;;6.55;5.82;;;;;;;;;;5028649;28;20192;-50
2021/11/17 06:06:22;;;;;;;6.78;5.97;;;;;;;;;;5039077;28;20187;-49
2021/11/17 06:08:54;;;;;;;7.65;6.20;;;;;;;;;;5032345;28;20172;-50
2021/11/17 06:11:21;;;;;;;9.20;6.97;;;;;;;;;;5033458;28;20187;-50
2021/11/17 06:13:47;;;;;;;10.20;6.80;;;;;;;;;;5035063;28;20176;-49
2021/11/17 06:16:13;;;;;;;9.18;6.95;;;;;;;;;;5035422;28;20222;-49
2021/11/17 06:18:41;;;;;;;9.55;6.88;;;;;;;;;;5033633;28;20172;-49
2021/11/17 06:21:08;;;;;;;10.55;7.30;;;;;;;;;;5033729;28;20202;-49
2021/11/17 06:23:40;;;;;;;9.65;6.30;;;;;;;;;;5033622;28;20188;-49
2021/11/17 06:26:08;;;;;;;8.95;6.88;;;;;;;;;;5030401;28;20215;-49
2021/11/17 06:28:34;;;;;;;8.55;6.72;;;;;;;;;;5030011;28;20187;-50
2021/11/17 06:31:01;;;;;;;8.25;5.68;;;;;;;;;;5034310;28;20180;-49
2021/11/17 06:33:27;;;;;;;7.70;5.68;;;;;;;;;;5032965;28;20204;-50
2021/11/17 06:35:53;;;;;;;7.40;5.88;;;;;;;;;;5032947;28;20450;-49
2021/11/17 06:38:19;;;;;;;6.45;5.45;;;;;;;;;;5031784;28;20201;-51
2021/11/17 06:40:47;;;;;;;9.00;5.78;;;;;;;;;;5026536;28;20210;-49
2021/11/17 06:43:13;;;;;;;8.13;5.82;;;;;;;;;;5025779;28;20222;-48
2021/11/17 06:45:44;;;;;;;7.55;5.72;;;;;;;;;;5027294;28;20203;-50
2021/11/17 06:48:10;;;;;;;8.25;6.05;;;;;;;;;;5028684;28;20624;-50
2021/11/17 06:50:37;;;;;;;8.35;6.15;;;;;;;;;;5026636;28;20538;-50
2021/11/17 06:53:04;;;;;;;6.57;5.45;;;;;;;;;;5025309;28;20568;-50
2021/11/17 06:55:30;;;;;;;7.13;5.55;;;;;;;;;;5025569;28;20188;-49
2021/11/17 06:57:56;;;;;;;7.95;5.82;;;;;;;;;;5032231;28;20191;-49
2021/11/17 07:00:24;;;;;;;6.93;5.70;;;;;;;;;;5025996;28;20201;-49
2021/11/17 07:02:50;;;;;;;8.25;5.95;;;;;;;;;;5025478;28;20590;-50
2021/11/17 07:05:17;;;;;;;7.60;5.20;;;;;;;;;;5025521;28;20204;-49
2021/11/17 07:07:43;;;;;;;9.38;5.80;;;;;;;;;;5024903;28;20259;-50
2021/11/17 07:10:10;;;;;;;7.78;5.15;;;;;;;;;;5026094;28;20185;-50
2021/11/17 07:12:37;;;;;;;8.90;5.47;;;;;;;;;;5031768;28;20179;-50
2021/11/17 07:15:03;;;;;;;7.78;5.10;;;;;;;;;;5030774;28;20291;-50
2021/11/17 07:17:29;;;;;;;7.45;5.32;;;;;;;;;;5028191;28;20184;-50
2021/11/17 07:19:55;;;;;;;6.65;4.90;;;;;;;;;;5025780;28;20552;-50
2021/11/17 07:22:21;;;;;;;6.20;4.93;;;;;;;;;;5025542;28;20194;-49
2021/11/17 07:24:47;;;;;;;6.10;5.07;;;;;;;;;;5025334;28;20864;-50
2021/11/17 07:27:20;;;;;;;6.43;5.20;;;;;;;;;;5027080;28;20184;-49
2021/11/17 07:29:46;;;;;;;8.05;4.93;;;;;;;;;;5025377;28;20210;-50
2021/11/17 07:32:12;;;;;;;6.93;5.25;;;;;;;;;;5024696;28;20262;-50
2021/11/17 07:34:38;;;;;;;6.20;4.90;;;;;;;;;;5024987;28;20271;-49
2021/11/17 07:37:04;;;;;;;5.47;4.70;;;;;;;;;;5024568;28;20191;-49
2021/11/17 07:39:30;;;;;;;5.88;4.90;;;;;;;;;;5024985;28;20192;-50
2021/11/17 07:41:56;;;;;;;6.13;4.13;;;;;;;;;;5025366;28;20587;-50
2021/11/17 07:44:23;;;;;;;6.32;5.03;;;;;;;;;;5025010;28;20191;-49
2021/11/17 07:46:51;;;;;;;6.43;5.10;;;;;;;;;;5030209;28;20215;-49
2021/11/17 07:49:17;;;;;;;6.22;4.70;;;;;;;;;;5025068;28;20183;-49
2021/11/17 07:51:44;;;;;;;6.40;4.70;;;;;;;;;;5025224;28;20178;-49
2021/11/17 07:54:10;;;;;;;6.25;4.40;;;;;;;;;;5025059;28;20201;-50
2021/11/17 07:56:38;;;;;;;5.20;4.38;;;;;;;;;;5024247;28;20302;-49
2021/11/17 07:59:05;;;;;;;5.13;4.15;;;;;;;;;;5024705;28;20184;-49
2021/11/17 08:01:31;;;;;;;5.53;4.55;;;;;;;;;;5024936;28;20463;-50
2021/11/17 08:03:57;;;;;;;4.68;4.18;;;;;;;;;;5023639;28;20207;-50
2021/11/17 08:06:25;;;;;;;5.30;4.47;;;;;;;;;;5023971;28;20518;-49
2021/11/17 08:08:52;;;;;;;5.18;4.28;;;;;;;;;;5023851;28;20266;-50
2021/11/17 08:11:18;;;;;;;5.25;4.40;;;;;;;;;;5024314;28;20215;-50
2021/11/17 08:13:45;;;;;;;4.72;3.83;;;;;;;;;;5028997;28;20194;-50
2021/11/17 08:16:11;;;;;;;5.35;4.15;;;;;;;;;;5027124;28;20225;-50
2021/11/17 08:18:39;;;;;;;5.32;4.13;;;;;;;;;;5031774;28;20187;-49
2021/11/17 08:21:05;;;;;;;4.40;4.00;;;;;;;;;;5032081;28;20171;-48
2021/11/17 08:23:31;;;;;;;4.75;3.88;;;;;;;;;;5043559;28;20536;-51
2021/11/17 08:25:57;;;;;;;4.68;3.70;;;;;;;;;;5028367;28;20203;-49
2021/11/17 08:28:23;;;;;;;5.10;3.95;;;;;;;;;;5030419;28;20190;-50
2021/11/17 08:30:49;;;;;;;5.07;3.90;;;;;;;;;;5028852;28;20179;-50
2021/11/17 08:33:16;;;;;;;4.85;3.97;;;;;;;;;;5025140;28;20198;-49
2021/11/17 08:35:43;;;;;;;5.63;3.95;;;;;;;;;;5023745;28;20215;-50
2021/11/17 08:38:10;;;;;;;4.25;3.60;;;;;;;;;;5025609;28;20211;-49
2021/11/17 08:40:38;;;;;;;4.22;3.83;;;;;;;;;;5023955;28;20192;-50
2021/11/17 08:43:05;;;;;;;5.30;3.97;;;;;;;;;;5024212;28;20261;-49
2021/11/17 08:45:31;;;;;;;4.35;3.80;;;;;;;;;;5026960;28;20301;-48
2021/11/17 08:47:57;;;;;;;6.07;3.97;;;;;;;;;;5025752;28;20582;-48
2021/11/17 08:50:25;;;;;;;4.75;3.75;;;;;;;;;;5028045;28;20574;-50
2021/11/17 08:52:52;;;;;;;4.47;3.70;;;;;;;;;;5024450;28;20176;-50
2021/11/17 08:55:19;;;;;;;5.00;3.53;;;;;;;;;;5025235;28;20192;-48
2021/11/17 08:57:47;;;;;;;3.83;3.22;;;;;;;;;;5024284;28;20248;-49
2021/11/17 09:00:14;;;;;;;4.00;3.60;;;;;;;;;;5026825;28;20180;-50
2021/11/17 09:02:43;;;;;;;4.00;3.60;;;;;;;;;;5023569;28;20212;-51
2021/11/17 09:05:17;;;;;;;4.07;3.42;;;;;;;;;;5024505;28;20617;-51
2021/11/17 09:07:44;;;;;;;3.97;3.45;;;;;;;;;;5023284;28;20552;-49
2021/11/17 09:10:11;;;;;;;4.07;3.28;;;;;;;;;;5028982;28;20198;-50
2021/11/17 09:12:37;;;;;;;3.45;3.13;;;;;;;;;;5031992;28;20180;-50
2021/11/17 09:15:05;;;;;;;3.67;3.30;;;;;;;;;;5027995;28;20188;-50
2021/11/17 09:17:31;;;;;;;3.83;3.00;;;;;;;;;;5028220;28;20188;-50
2021/11/17 09:19:57;;;;;;;3.80;3.50;;;;;;;;;;5027436;28;20187;-49
2021/11/17 09:22:24;;;;;;;3.53;3.10;;;;;;;;;;5028167;28;20191;-50
2021/11/17 09:24:50;;;;;;;3.70;3.30;;;;;;;;;;5028026;28;20227;-50
2021/11/17 09:27:18;;;;;;;3.97;3.42;;;;;;;;;;5028719;28;20454;-50
2021/11/17 09:29:44;;;;;;;3.53;3.20;;;;;;;;;;5026248;28;20463;-49
2021/11/17 09:32:11;;;;;;;4.32;2.60;;;;;;;;;;5028191;28;20180;-50
2021/11/17 09:34:38;;;;;;;3.70;3.08;;;;;;;;;;5029828;28;20601;-50
2021/11/17 09:37:07;;;;;;;5.88;2.85;;;;;;;;;;5035181;28;20184;-51
2021/11/17 09:39:33;;;;;;;5.28;2.78;;;;;;;;;;5033877;28;20191;-50
2021/11/17 09:42:00;;;;;;;5.88;3.05;;;;;;;;;;5035401;28;20184;-50
2021/11/17 09:44:29;;;;;;;6.70;2.92;;;;;;;;;;5034383;28;20238;-50
2021/11/17 09:46:56;;;;;;;4.15;3.17;;;;;;;;;;5034618;28;20207;-49
2021/11/17 09:49:41;;;;;;;4.82;2.60;;;;;;;;;;5028346;28;20555;-50
2021/11/17 09:52:10;;;;;;;5.57;2.92;;;;;;;;;;5027814;28;20191;-50
2021/11/17 09:54:49;;;;;;;5.88;2.75;;;;;;;;;;5026780;28;20183;-49
2021/11/17 09:57:17;;;;;;;6.88;2.85;;;;;;;;;;5026440;28;20192;-49
2021/11/17 09:59:46;;;;;;;5.97;3.17;;;;;;;;;;5027039;28;20287;-49
2021/11/17 10:02:12;;;;;;;5.20;2.78;;;;;;;;;;5026514;28;20209;-50
2021/11/17 10:04:43;;;;;;;6.53;3.03;;;;;;;;;;5026915;28;20196;-50
2021/11/17 10:07:54;;;;;;;7.32;2.75;;;;;;;;;;5026058;28;20200;-49
2021/11/17 10:13:00;;;;;;;5.78;2.50;;;;;;;;;;5027206;28;20203;-49
2021/11/17 10:15:32;;;;;;;4.47;3.00;;;;;;;;;;5025868;28;20188;-48
2021/11/17 10:18:06;;;;;;;6.82;2.92;;;;;;;;;;5027626;28;20192;-49
2021/11/17 10:20:36;;;;;;;5.20;2.80;;;;;;;;;;5027130;28;20187;-49
2021/11/17 10:23:08;;;;;;;8.13;3.35;;;;;;;;;;5028643;28;20266;-50
2021/11/17 10:25:46;;;;;;;7.50;3.50;;;;;;;;;;5027576;28;20636;-49
2021/11/17 10:28:12;;;;;;;6.07;3.20;;;;;;;;;;5029743;28;20267;-51
2021/11/17 10:30:58;;;;;;;5.70;3.20;;;;;;;;;;5031048;28;20186;-49
2021/11/17 10:33:24;;;;;;;4.15;3.33;;;;;;;;;;5031276;28;20202;-48
2021/11/17 10:36:01;;;;;;;6.88;3.83;;;;;;;;;;5034556;28;20183;-50
2021/11/17 10:38:32;;;;;;;6.93;3.80;;;;;;;;;;5031749;28;20570;-50
2021/11/17 10:41:05;;;;;;;6.75;4.13;;;;;;;;;;5025997;28;20184;-50
2021/11/17 10:43:33;;;;;;;6.00;4.07;;;;;;;;;;5026902;28;20590;-49
2021/11/17 10:46:05;;;;;;;6.68;3.90;;;;;;;;;;5026685;28;20212;-50
2021/11/17 10:48:34;;;;;;;10.48;4.25;;;;;;;;;;5026876;28;20295;-50
2021/11/17 10:51:08;;;;;;;8.80;4.30;;;;;;;;;;5026907;28;20188;-49
2021/11/17 10:53:35;;;;;;;7.60;3.97;;;;;;;;;;5025891;28;20191;-50
2021/11/17 10:56:03;;;;;;;10.85;4.03;;;;;;;;;;5025513;28;20246;-49
2021/11/17 10:58:31;;;;;;;11.85;4.50;;;;;;;;;;5025158;28;20179;-48
2021/11/17 11:01:02;;;;;;;7.03;4.07;;;;;;;;;;5026281;28;20603;-50
2021/11/17 11:03:30;;;;;;;10.50;4.10;;;;;;;;;;5028162;28;20195;-49
2021/11/17 11:05:59;;;;;;;15.55;4.72;;;;;;;;;;5032143;28;20602;-49
2021/11/17 11:08:51;;;;;;;10.65;4.10;;;;;;;;;;5031743;28;20184;-48
2021/11/17 11:11:18;;;;;;;12.63;4.75;;;;;;;;;;5020529;28;20201;-49
2021/11/17 11:13:50;;;;;;;11.57;4.53;;;;;;;;;;5025737;28;20194;-50
2021/11/17 11:16:25;;;;;;;10.00;4.30;;;;;;;;;;5025604;28;20187;-50
2021/11/17 11:18:53;;;;;;;11.93;4.20;;;;;;;;;;5025223;28;20241;-49
2021/11/17 11:21:40;;;;;;;10.27;4.50;;;;;;;;;;5025599;28;20216;-50
2021/11/17 11:24:08;;;;;;;10.82;4.05;;;;;;;;;;5031182;28;20203;-49
2021/11/17 11:26:54;;;;;;;10.45;4.50;;;;;;;;;;5024361;28;20242;-50
2021/11/17 11:29:24;;;;;;;17.75;4.45;;;;;;;;;;5025986;28;20203;-49
2021/11/17 11:31:51;;;;;;;8.68;4.07;;;;;;;;;;5024599;28;20235;-49
2021/11/17 11:34:32;;;;;;;9.65;4.35;;;;;;;;;;5028272;28;20179;-49
2021/11/17 11:36:59;;;;;;;12.40;4.38;;;;;;;;;;5027903;28;20175;-49
2021/11/17 11:39:26;;;;;;;8.98;4.00;;;;;;;;;;5028768;28;20286;-50
2021/11/17 11:42:04;;;;;;;9.20;4.28;;;;;;;;;;5029911;28;20566;-50
2021/11/17 11:44:38;;;;;;;14.32;4.53;;;;;;;;;;5025194;28;20222;-49
2021/11/17 11:47:04;;;;;;;13.30;4.72;;;;;;;;;;5024244;28;20219;-48
2021/11/17 11:49:42;;;;;;;12.70;5.75;;;;;;;;;;5024043;28;20225;-49
2021/11/17 11:52:19;;;;;;;11.73;4.82;;;;;;;;;;5025451;28;20274;-49
2021/11/17 11:54:54;;;;;;;11.57;3.95;;;;;;;;;;5024959;28;20559;-49
2021/11/17 11:57:23;;;;;;;8.80;4.10;;;;;;;;;;5024322;28;20464;-50
2021/11/17 11:59:53;;;;;;;7.60;3.75;;;;;;;;;;5024663;28;20251;-49
2021/11/17 12:02:22;;;;;;;11.70;4.03;;;;;;;;;;5024849;28;20223;-49
2021/11/17 12:04:52;;;;;;;12.80;4.13;;;;;;;;;;5024007;28;20196;-50
2021/11/17 12:07:24;;;;;;;11.27;3.88;;;;;;;;;;5029734;28;20227;-49
2021/11/17 12:10:02;;;;;;;7.38;3.30;;;;;;;;;;5029596;28;20210;-49
2021/11/17 12:12:30;;;;;;;10.98;3.80;;;;;;;;;;5031222;28;20172;-50
2021/11/17 12:15:11;;;;;;;6.20;3.13;;;;;;;;;;5029959;28;20187;-49
2021/11/17 12:17:37;;;;;;;7.68;3.47;;;;;;;;;;5031323;28;20207;-48
2021/11/17 12:20:18;;;;;;;6.68;3.60;;;;;;;;;;5025407;28;20211;-50
2021/11/17 12:22:47;;;;;;;6.22;3.60;;;;;;;;;;5029343;28;20179;-50
2021/11/17 12:25:30;;;;;;;7.45;3.08;;;;;;;;;;5024477;28;20253;-50
2021/11/17 12:28:06;;;;;;;6.22;3.30;;;;;;;;;;5024977;28;20242;-48
2021/11/17 12:30:40;;;;;;;7.93;3.50;;;;;;;;;;5024843;28;20271;-50
2021/11/17 12:33:19;;;;;;;7.07;3.03;;;;;;;;;;5024180;28;20713;-50
2021/11/17 12:35:48;;;;;;;5.70;3.33;;;;;;;;;;5029470;28;20184;-49
2021/11/17 12:38:17;;;;;;;7.47;3.05;;;;;;;;;;5025305;28;20189;-49
2021/11/17 12:40:45;;;;;;;9.73;2.78;;;;;;;;;;5024114;28;20225;-49
2021/11/17 12:43:30;;;;;;;6.10;3.10;;;;;;;;;;5028034;28;20306;-50
2021/11/17 12:46:11;;;;;;;8.07;2.80;;;;;;;;;;5032515;28;20214;-49
2021/11/17 12:48:40;;;;;;;5.18;2.80;;;;;;;;;;5031048;28;20192;-49
2021/11/17 12:51:15;;;;;;;3.72;2.88;;;;;;;;;;5029241;28;20184;-50
2021/11/17 12:53:44;;;;;;;7.53;3.05;;;;;;;;;;5028707;28;20183;-49
2021/11/17 12:56:32;;;;;;;6.20;2.92;;;;;;;;;;5031306;28;20222;-50
2021/11/17 12:59:01;;;;;;;4.85;2.55;;;;;;;;;;5029406;28;20587;-49
2021/11/17 13:01:30;;;;;;;5.63;2.90;;;;;;;;;;5028914;28;20475;-50
2021/11/17 13:04:06;;;;;;;5.88;3.00;;;;;;;;;;5029614;28;20199;-50
2021/11/17 13:06:47;;;;;;;5.45;2.83;;;;;;;;;;5029286;28;20609;-49
2021/11/17 13:09:28;;;;;;;5.93;3.00;;;;;;;;;;5026897;28;20175;-50
2021/11/17 13:11:54;;;;;;;6.90;2.92;;;;;;;;;;5028529;28;20575;-50
2021/11/17 13:14:35;;;;;;;10.07;3.17;;;;;;;;;;5034238;28;20186;-49
2021/11/17 13:17:10;;;;;;;6.00;3.13;;;;;;;;;;5036142;28;20187;-49
2021/11/17 13:19:41;;;;;;;5.38;2.72;;;;;;;;;;5035491;28;20179;-50
2021/11/17 13:22:28;;;;;;;7.63;3.45;;;;;;;;;;5035850;28;20195;-49
2021/11/17 13:25:21;;;;;;;5.80;3.00;;;;;;;;;;5042864;28;20189;-49
2021/11/17 13:27:50;;;;;;;8.02;3.20;;;;;;;;;;5029942;28;20183;-50
2021/11/17 13:30:23;;;;;;;9.48;3.40;;;;;;;;;;5027378;28;20188;-49
2021/11/17 13:32:50;;;;;;;6.40;3.38;;;;;;;;;;5027734;28;20569;-49
2021/11/17 13:35:37;;;;;;;7.45;3.10;;;;;;;;;;5027034;28;20212;-50
2021/11/17 13:38:19;;;;;;;5.72;3.05;;;;;;;;;;5027256;28;20590;-50
2021/11/17 13:40:47;;;;;;;6.93;2.90;;;;;;;;;;5028340;28;20176;-49
2021/11/17 13:43:14;;;;;;;6.20;3.38;;;;;;;;;;5026435;28;20500;-48
2021/11/17 13:45:40;;;;;;;4.03;2.72;;;;;;;;;;5030891;28;20212;-50
2021/11/17 13:48:07;;;;;;;4.10;2.63;;;;;;;;;;5026489;28;20226;-48
2021/11/17 13:50:35;;;;;;;6.60;2.50;;;;;;;;;;5027829;28;20184;-49
2021/11/17 13:53:02;;;;;;;8.52;2.97;;;;;;;;;;5026019;28;21111;-49
2021/11/17 13:55:30;;;;;;;5.05;2.58;;;;;;;;;;5026130;28;20195;-50
2021/11/17 13:57:56;;;;;;;4.78;2.83;;;;;;;;;;5026738;28;20183;-49
2021/11/17 14:00:24;;;;;;;6.95;2.63;;;;;;;;;;5027315;28;20180;-50
2021/11/17 14:02:50;;;;;;;7.82;3.10;;;;;;;;;;5026875;28;20555;-50
2021/11/17 14:05:18;;;;;;;4.38;2.30;;;;;;;;;;5030104;28;20183;-50
2021/11/17 14:07:44;;;;;;;5.43;2.78;;;;;;;;;;5029152;28;20187;-48
2021/11/17 14:10:11;;;;;;;10.20;2.90;;;;;;;;;;5025172;28;20488;-50
2021/11/17 14:12:37;;;;;;;7.95;2.30;;;;;;;;;;5027482;28;20482;-49
2021/11/17 14:15:05;;;;;;;4.95;2.30;;;;;;;;;;5025629;28;20180;-49
2021/11/17 14:17:31;;;;;;;6.35;2.65;;;;;;;;;;5028325;28;20586;-49
2021/11/17 14:19:57;;;;;;;6.38;2.50;;;;;;;;;;5031064;28;20217;-48
2021/11/17 14:22:23;;;;;;;10.70;2.38;;;;;;;;;;5026908;28;20179;-49
2021/11/17 14:24:51;;;;;;;8.45;3.47;;;;;;;;;;5025318;28;20184;-49
2021/11/17 14:27:17;;;;;;;6.70;2.55;;;;;;;;;;5026267;28;20625;-49
2021/11/17 14:29:45;;;;;;;10.00;3.25;;;;;;;;;;5030175;28;20203;-50
2021/11/17 14:32:13;;;;;;;7.10;2.92;;;;;;;;;;5029465;28;20172;-50
2021/11/17 14:34:39;;;;;;;11.05;2.80;;;;;;;;;;5030057;28;20191;-49
2021/11/17 14:37:06;;;;;;;8.35;2.40;;;;;;;;;;5025719;28;20192;-50
2021/11/17 14:39:36;;;;;;;7.15;2.65;;;;;;;;;;5027180;28;20237;-49
2021/11/17 14:42:03;;;;;;;6.90;2.10;;;;;;;;;;5026629;28;20184;-49
2021/11/17 14:44:29;;;;;;;6.18;2.25;;;;;;;;;;5025876;28;20637;-50
2021/11/17 14:46:55;;;;;;;8.40;2.13;;;;;;;;;;5026074;28;20216;-48
2021/11/17 14:49:21;;;;;;;7.47;2.33;;;;;;;;;;5025501;28;20230;-51
2021/11/17 14:51:47;;;;;;;6.95;2.40;;;;;;;;;;5031660;28;20212;-50
2021/11/17 14:54:13;;;;;;;5.43;2.35;;;;;;;;;;5033484;28;20255;-48
2021/11/17 14:56:40;;;;;;;4.00;1.60;;;;;;;;;;5033399;28;22131;-49
2021/11/17 14:59:07;;;;;;;4.50;2.28;;;;;;;;;;5031958;28;20183;-49
2021/11/17 15:01:35;;;;;;;5.05;2.08;;;;;;;;;;5027890;28;20188;-49
2021/11/17 15:04:04;;;;;;;5.45;2.45;;;;;;;;;;5024077;28;20265;-48
2021/11/17 15:06:32;;;;;;;7.03;2.60;;;;;;;;;;5023975;28;20211;-50
2021/11/17 15:08:58;;;;;;;4.47;2.13;;;;;;;;;;5024949;28;20278;-49
2021/11/17 15:11:25;;;;;;;5.28;2.17;;;;;;;;;;5025760;28;20213;-48
2021/11/17 15:13:52;;;;;;;6.55;2.25;;;;;;;;;;5026125;28;20184;-50
2021/11/17 15:16:18;;;;;;;5.57;2.17;;;;;;;;;;5024667;28;20179;-49
2021/11/17 15:18:45;;;;;;;4.70;1.73;;;;;;;;;;5028330;28;20190;-48
2021/11/17 15:21:12;;;;;;;5.95;1.95;;;;;;;;;;5033681;28;20448;-49
2021/11/17 15:23:38;;;;;;;2.92;1.70;;;;;;;;;;5036233;28;20590;-49
2021/11/17 15:26:05;;;;;;;5.25;2.28;;;;;;;;;;5027887;28;20207;-48
2021/11/17 15:28:37;;;;;;;4.05;1.77;;;;;;;;;;5025128;28;20196;-49
2021/11/17 15:31:06;;;;;;;3.40;1.98;;;;;;;;;;5023438;28;20192;-49
2021/11/17 15:33:32;;;;;;;3.78;2.05;;;;;;;;;;5026128;28;20195;-48
2021/11/17 15:35:58;;;;;;;4.15;2.28;;;;;;;;;;5027677;28;20275;-50
2021/11/17 15:38:24;;;;;;;5.20;1.88;;;;;;;;;;5025458;28;20191;-50
2021/11/17 15:40:52;;;;;;;4.25;1.98;;;;;;;;;;5025199;28;20615;-49
2021/11/17 15:43:18;;;;;;;3.92;2.00;;;;;;;;;;5031423;28;20214;-50
2021/11/17 15:45:44;;;;;;;2.30;1.80;;;;;;;;;;5026832;28;20215;-49
2021/11/17 15:48:13;;;;;;;2.85;1.80;;;;;;;;;;5024630;28;20610;-48
2021/11/17 15:50:41;;;;;;;3.67;1.95;;;;;;;;;;5032821;28;20190;-49
2021/11/17 15:53:07;;;;;;;3.13;2.30;;;;;;;;;;5024658;28;20274;-49
2021/11/17 15:55:33;;;;;;;2.55;1.80;;;;;;;;;;5024876;28;20191;-48
2021/11/17 15:58:01;;;;;;;2.88;1.83;;;;;;;;;;5024549;28;20192;-48
2021/11/17 16:00:27;;;;;;;2.28;1.70;;;;;;;;;;5024820;28;20209;-48
2021/11/17 16:02:54;;;;;;;2.53;1.58;;;;;;;;;;5024714;28;20204;-48
2021/11/17 16:05:20;;;;;;;3.50;1.73;;;;;;;;;;5029079;28;20270;-48
2021/11/17 16:07:46;;;;;;;2.45;1.75;;;;;;;;;;5028459;28;20176;-50
2021/11/17 16:10:13;;;;;;;3.25;1.77;;;;;;;;;;5025802;28;20180;-48
2021/11/17 16:12:41;;;;;;;1.45;1.33;;;;;;;;;;5028251;28;20258;-50
2021/11/17 16:15:08;;;;;;;1.80;1.45;;;;;;;;;;5024321;28;20176;-50
2021/11/17 16:17:37;;;;;;;2.33;1.38;;;;;;;;;;5028607;28;20203;-49
2021/11/17 16:20:08;;;;;;;2.33;1.65;;;;;;;;;;5024382;28;20763;-50
2021/11/17 16:22:38;;;;;;;1.50;1.40;;;;;;;;;;5026050;28;20187;-50
2021/11/17 16:27:51;;;;;;;2.10;1.60;;;;;;;;;;5030208;28;20244;-49
2021/11/17 16:30:18;;;;;;;2.70;1.60;;;;;;;;;;5034980;28;20176;-48
2021/11/17 16:32:44;;;;;;;3.25;1.88;;;;;;;;;;5031014;28;20500;-49
2021/11/17 16:35:13;;;;;;;3.25;1.67;;;;;;;;;;5028642;28;20607;-48
2021/11/17 16:37:39;;;;;;;1.58;1.38;;;;;;;;;;5031594;28;20566;-49
2021/11/17 16:40:07;;;;;;;3.33;1.70;;;;;;;;;;5028955;28;20188;-48
2021/11/17 16:42:33;;;;;;;2.75;1.50;;;;;;;;;;5027699;28;20192;-49
2021/11/17 16:44:59;;;;;;;1.80;1.50;;;;;;;;;;5028072;28;20191;-50
2021/11/17 16:47:26;;;;;;;1.83;1.38;;;;;;;;;;5027227;28;20223;-49
2021/11/17 16:49:53;;;;;;;2.22;1.40;;;;;;;;;;5028575;28;20188;-50
2021/11/17 16:52:23;;;;;;;3.20;1.40;;;;;;;;;;5028163;28;20482;-50
2021/11/17 16:54:54;;;;;;;2.67;1.42;;;;;;;;;;5031082;28;20471;-49
2021/11/17 16:57:20;;;;;;;1.95;1.30;;;;;;;;;;5032787;28;20183;-48
2021/11/17 16:59:46;;;;;;;1.67;1.58;;;;;;;;;;5028827;28;20238;-50
2021/11/17 17:02:12;;;;;;;1.83;1.45;;;;;;;;;;5033886;28;20441;-48
2021/11/17 17:04:39;;;;;;;1.63;1.35;;;;;;;;;;5026767;28;20445;-48
2021/11/17 17:07:06;;;;;;;3.42;1.77;;;;;;;;;;5028195;28;20664;-49
2021/11/17 17:09:32;;;;;;;1.92;1.50;;;;;;;;;;5027858;28;20191;-49
2021/11/17 17:11:59;;;;;;;2.35;1.60;;;;;;;;;;5027983;28;20183;-50
2021/11/17 17:14:24;;;;;;;1.65;1.40;;;;;;;;;;5034816;28;20266;-49
2021/11/17 17:16:50;;;;;;;1.40;1.30;;;;;;;;;;5029078;28;20665;-49
2021/11/17 17:19:17;;;;;;;2.28;1.45;;;;;;;;;;5027729;28;20193;-48
2021/11/17 17:21:44;;;;;;;3.67;1.98;;;;;;;;;;5027291;28;21033;-50
2021/11/17 17:24:11;;;;;;;1.50;1.30;;;;;;;;;;5033256;28;20188;-49
2021/11/17 17:26:38;;;;;;;2.40;1.48;;;;;;;;;;5031589;28;20258;-50
2021/11/17 17:29:04;;;;;;;1.58;1.40;;;;;;;;;;5027649;28;20195;-49
2021/11/17 17:31:30;;;;;;;1.98;1.48;;;;;;;;;;5028176;28;20180;-48
2021/11/17 17:33:58;;;;;;;1.45;1.35;;;;;;;;;;5026618;28;20225;-49